Time;durP1;ratioP1;P1;durP2;ratioP2;P2;SDS_P1;SDS_P2;PMS_P1;PMS_P2;Temp;Humidity;BMP_temperature;BMP_pressure;BME280_temperature;BME280_humidity;BME280_pressure;Samples;Min_cycle;Max_cycle;Signal;HPM_P1;HPM_P2
2023/10/16 14:21:25;;;;;;;;;4.00;2.50;;;;;-143.90;78.18;75757.34;4189586;28;103774;-75
2023/10/16 14:23:53;;;;;;;;;1.50;1.50;;;;;-143.90;79.58;75736.66;4980310;28;103734;-75
2023/10/16 14:26:22;;;;;;;;;2.00;1.25;;;;;-143.90;78.89;75734.59;4976377;28;101637;-78
2023/10/16 14:28:59;;;;;;;;;3.00;2.25;;;;;-143.90;77.24;75751.13;4971893;28;101835;-78
2023/10/16 14:31:28;;;;;;;;;3.50;3.25;;;;;-143.90;81.03;75759.41;4968363;28;103148;-76
2023/10/16 14:33:58;;;;;;;;;6.50;3.75;;;;;-143.90;82.12;75778.00;4974768;28;103475;-76
2023/10/16 14:36:29;;;;;;;;;3.50;3.25;;;;;-143.90;83.20;75778.00;4973973;28;101729;-77
2023/10/16 14:38:56;;;;;;;;;14.75;9.75;;;;;-143.90;81.70;75809.03;4972597;28;101718;-76
2023/10/16 14:41:23;;;;;;;;;9.75;6.50;;;;;-143.90;83.32;75806.97;4970494;28;102031;-76
2023/10/16 14:43:51;;;;;;;;;7.25;7.00;;;;;-143.90;83.27;75809.03;4973073;28;103458;-76
2023/10/16 14:46:22;;;;;;;;;6.25;5.75;;;;;-143.90;82.35;75796.63;4978107;28;102151;-76
2023/10/16 14:48:50;;;;;;;;;7.50;6.00;;;;;-143.90;82.24;75790.41;4972630;28;101513;-76
2023/10/16 14:51:18;;;;;;;;;9.00;8.00;;;;;-143.90;83.64;75800.75;4976522;28;101730;-76
2023/10/16 14:53:48;;;;;;;;;8.50;7.50;;;;;-143.90;83.62;75800.75;4971580;28;103642;-75
2023/10/16 14:56:18;;;;;;;;;10.00;7.75;;;;;-143.90;82.51;75804.91;4976489;28;101813;-77
2023/10/16 14:58:47;;;;;;;;;11.50;8.75;;;;;-143.90;82.85;75837.97;4971588;28;102090;-76
2023/10/16 15:01:16;;;;;;;;;10.00;8.00;;;;;-143.90;83.54;75842.13;4973385;28;102021;-76
2023/10/16 15:03:45;;;;;;;;;9.50;7.00;;;;;-143.90;82.09;75842.13;4952711;28;103188;-75
2023/10/16 15:06:13;;;;;;;;;8.00;7.00;;;;;-143.90;81.11;75852.44;4958518;28;103266;-75
2023/10/16 15:08:41;;;;;;;;;4.50;4.00;;;;;-143.90;82.22;75842.13;4954100;28;101760;-76
2023/10/16 15:11:10;;;;;;;;;3.75;3.00;;;;;-143.90;79.76;75844.19;4972677;28;101980;-75
2023/10/16 15:13:38;;;;;;;;;5.00;4.00;;;;;-143.90;80.39;75854.53;4974308;28;103772;-76
2023/10/16 15:16:07;;;;;;;;;3.50;2.00;;;;;-143.90;80.70;75842.13;4970767;28;101624;-76
2023/10/16 15:18:34;;;;;;;;;2.00;1.00;;;;;-143.90;79.32;75858.66;4973388;28;101775;-76
2023/10/16 15:21:01;;;;;;;;;3.00;1.50;;;;;-143.90;81.87;75860.72;4956446;28;102006;-75
2023/10/16 15:23:31;;;;;;;;;3.00;3.00;;;;;-143.90;81.17;75850.38;4973343;28;103537;-76
2023/10/16 15:26:00;;;;;;;;;2.75;1.25;;;;;-143.90;80.90;75856.59;4955357;28;101689;-76
2023/10/16 15:28:27;;;;;;;;;4.00;3.00;;;;;-143.90;82.10;75871.06;4969940;28;101680;-76
2023/10/16 15:31:16;;;;;;;;;3.25;2.25;;;;;-143.90;82.11;75869.00;4960375;28;103293;-76
2023/10/16 15:33:43;;;;;;;;;3.00;3.00;;;;;-143.90;80.70;75881.41;4972174;28;103503;-76
2023/10/16 15:36:17;;;;;;;;;4.00;3.50;;;;;-143.90;81.64;75869.00;4970449;28;102082;-76
2023/10/16 15:38:45;;;;;;;;;2.75;2.50;;;;;-143.90;81.06;75875.19;4970101;28;102012;-76
2023/10/16 15:41:13;;;;;;;;;4.00;3.75;;;;;-143.90;79.94;75891.75;4972001;28;101853;-75
2023/10/16 15:43:40;;;;;;;;;7.50;7.25;;;;;-143.90;80.14;75908.28;4971991;28;103349;-76
2023/10/16 15:46:34;;;;;;;;;8.25;6.25;;;;;-143.90;81.67;75897.94;4973905;28;103241;-75
2023/10/16 15:49:01;;;;;;;;;9.00;7.75;;;;;-143.90;82.12;75916.56;4969476;28;101576;-74
2023/10/16 15:51:32;;;;;;;;;4.00;4.00;;;;;-143.90;82.41;75916.56;4975847;28;101680;-76
2023/10/16 15:53:59;;;;;;;;;4.00;4.00;;;;;-143.90;81.86;75912.41;4972982;28;103473;-76
2023/10/16 15:56:26;;;;;;;;;6.00;3.75;;;;;-143.90;82.29;75918.63;4974600;28;101939;-76
2023/10/16 15:58:55;;;;;;;;;5.00;3.50;;;;;-143.90;81.30;75924.81;4976165;28;101671;-76
2023/10/16 16:01:25;;;;;;;;;5.50;4.75;;;;;-143.90;83.22;75918.63;4972094;28;101798;-76
2023/10/16 16:03:57;;;;;;;;;4.00;3.00;;;;;-143.90;82.47;75916.56;4977555;28;103456;-77
2023/10/16 16:06:29;;;;;;;;;4.00;3.75;;;;;-143.90;82.00;75931.03;4969380;28;101752;-76
2023/10/16 16:08:55;;;;;;;;;3.25;3.00;;;;;-143.90;81.96;75939.28;4979971;28;101536;-76
2023/10/16 16:11:27;;;;;;;;;2.50;2.50;;;;;-143.90;82.62;75937.22;4973970;28;101598;-77
2023/10/16 16:13:53;;;;;;;;;4.50;3.75;;;;;-143.90;82.83;75945.50;4980107;28;103840;-76
2023/10/16 16:16:21;;;;;;;;;3.50;2.50;;;;;-143.90;83.50;75947.56;4974041;28;101803;-76
2023/10/16 16:18:48;;;;;;;;;3.50;3.00;;;;;-143.90;83.40;75957.91;4977124;28;101600;-76
2023/10/16 16:21:16;;;;;;;;;7.00;4.50;;;;;-143.90;83.40;75962.03;4973503;28;101952;-76
2023/10/16 16:23:43;;;;;;;;;1.25;1.00;;;;;-143.90;83.25;75972.38;4964318;28;103595;-76
2023/10/16 16:26:09;;;;;;;;;5.50;4.50;;;;;-143.90;83.24;75984.78;4975029;28;103335;-77
2023/10/16 16:28:36;;;;;;;;;5.75;4.75;;;;;-143.90;83.54;75991.00;4972301;28;103249;-76
2023/10/16 16:31:03;;;;;;;;;2.50;2.25;;;;;-143.90;84.29;75999.25;4979385;28;102143;-76
2023/10/16 16:33:29;;;;;;;;;6.50;5.00;;;;;-143.90;83.91;76003.41;4969443;28;103570;-77
2023/10/16 16:35:56;;;;;;;;;5.50;4.50;;;;;-143.90;84.59;76001.34;4974316;28;102037;-76
2023/10/16 16:38:23;;;;;;;;;3.75;3.00;;;;;-143.90;85.10;76005.47;4971415;28;102008;-76
2023/10/16 16:40:50;;;;;;;;;3.50;3.00;;;;;-143.90;85.52;75995.13;4973130;28;101886;-78
2023/10/16 16:43:18;;;;;;;;;6.00;5.25;;;;;-143.90;86.26;76007.53;4956398;28;102619;-77
2023/10/16 16:45:46;;;;;;;;;6.00;4.00;;;;;-143.90;86.08;76009.59;4953045;28;102134;-77
2023/10/16 16:48:14;;;;;;;;;12.25;7.00;;;;;-143.90;86.02;76011.66;4952100;28;101900;-76
2023/10/16 16:50:41;;;;;;;;;10.75;9.75;;;;;-143.90;85.87;76013.75;4969385;28;104456;-76
2023/10/16 16:53:08;;;;;;;;;6.50;6.00;;;;;-143.90;85.44;76015.81;4956052;28;108351;-77
2023/10/16 16:55:34;;;;;;;;;12.00;10.75;;;;;-143.90;85.60;76011.66;4966613;28;101827;-75
2023/10/16 16:58:01;;;;;;;;;12.00;8.25;;;;;-143.90;85.63;76022.00;4966718;28;101992;-77
2023/10/16 17:00:28;;;;;;;;;8.75;8.00;;;;;-143.90;85.56;76015.81;4948372;28;101719;-75
2023/10/16 17:02:59;;;;;;;;;9.25;8.00;;;;;-143.90;86.29;76022.00;4962534;28;103587;-76
2023/10/16 17:05:27;;;;;;;;;9.25;7.75;;;;;-143.90;86.52;76022.00;4973949;28;101834;-76
2023/10/16 17:07:54;;;;;;;;;7.25;7.00;;;;;-143.90;86.51;76028.22;4972269;28;101874;-76
2023/10/16 17:10:27;;;;;;;;;10.50;9.00;;;;;-143.90;86.66;76022.00;4969766;28;101941;-75
2023/10/16 17:12:54;;;;;;;;;9.25;8.00;;;;;-143.90;87.18;76030.28;4967837;28;103535;-75
2023/10/16 17:15:23;;;;;;;;;10.50;7.75;;;;;-143.90;87.29;76032.34;4966178;28;103325;-76
2023/10/16 17:17:54;;;;;;;;;8.25;6.00;;;;;-143.90;87.02;76028.22;4970770;28;101924;-76
2023/10/16 17:20:21;;;;;;;;;8.25;7.00;;;;;-143.90;88.98;76015.81;4974501;28;107096;-76
2023/10/16 17:22:50;;;;;;;;;4.50;3.25;;;;;-143.90;90.15;76009.59;4968402;28;103779;-76
2023/10/16 17:25:21;;;;;;;;;8.00;6.00;;;;;-143.90;93.50;76015.81;4962318;28;101706;-76
2023/10/16 17:27:49;;;;;;;;;6.75;4.00;;;;;-143.90;94.46;76015.81;4967985;28;101962;-76
2023/10/16 17:30:16;;;;;;;;;6.50;6.00;;;;;-143.90;94.56;76019.94;4966219;28;101620;-76
2023/10/16 17:32:42;;;;;;;;;8.00;7.75;;;;;-143.90;96.03;76024.06;4965134;28;102210;-76
2023/10/16 17:35:11;;;;;;;;;7.00;6.00;;;;;-143.90;95.78;76028.22;4970874;28;101902;-76
2023/10/16 17:37:41;;;;;;;;;5.00;5.00;;;;;-143.90;94.86;76036.47;4971409;28;101691;-76
2023/10/16 17:40:11;;;;;;;;;7.75;6.75;;;;;-143.90;95.92;76036.47;4944711;28;101903;-75
2023/10/16 17:42:42;;;;;;;;;7.50;6.75;;;;;-143.90;95.87;76036.47;4975075;28;108337;-75
2023/10/16 17:45:09;;;;;;;;;5.75;5.75;;;;;-143.90;95.59;76044.75;4972564;28;101614;-75
2023/10/16 17:47:37;;;;;;;;;7.00;6.00;;;;;-143.90;95.93;76040.63;4947794;28;101648;-76
2023/10/16 17:50:07;;;;;;;;;14.00;10.25;;;;;-143.90;95.59;76046.81;4965505;28;103341;-76
2023/10/16 17:52:34;;;;;;;;;21.75;19.00;;;;;-143.90;94.58;76061.31;4974836;28;103375;-75
2023/10/16 17:55:04;;;;;;;;;18.25;15.75;;;;;-143.90;95.17;76057.16;4968405;28;101645;-75
2023/10/16 17:57:34;;;;;;;;;23.25;20.25;;;;;-143.90;94.14;76057.16;4965683;28;101752;-76
2023/10/16 18:00:07;;;;;;;;;16.25;15.00;;;;;-143.90;93.37;76055.09;4965681;28;109881;-76
2023/10/16 18:02:36;;;;;;;;;20.25;18.25;;;;;-143.90;92.76;76048.88;4973945;28;102936;-76
2023/10/16 18:05:05;;;;;;;;;17.00;13.00;;;;;-143.90;93.14;76046.81;4972177;28;101635;-75
2023/10/16 18:07:31;;;;;;;;;9.75;9.00;;;;;-143.90;92.36;76034.41;4950726;28;101731;-75
2023/10/16 18:09:58;;;;;;;;;9.75;9.00;;;;;-143.90;92.33;76032.34;4972185;28;102106;-76
2023/10/16 18:12:25;;;;;;;;;8.75;6.25;;;;;-143.90;92.69;76028.22;4970814;28;103836;-76
2023/10/16 18:14:52;;;;;;;;;11.50;8.75;;;;;-143.90;92.90;76024.06;4970533;28;101919;-77
2023/10/16 18:17:19;;;;;;;;;8.75;8.00;;;;;-143.90;92.66;76024.06;4975768;28;102067;-75
2023/10/16 18:19:47;;;;;;;;;12.50;9.75;;;;;-143.90;93.04;76028.22;4971516;28;102008;-76
2023/10/16 18:22:14;;;;;;;;;7.00;7.00;;;;;-143.90;92.88;76024.06;4949363;28;103421;-74
2023/10/16 18:24:41;;;;;;;;;11.75;10.00;;;;;-143.90;92.59;76032.34;4965463;28;101847;-75
2023/10/16 18:27:09;;;;;;;;;11.00;10.75;;;;;-143.90;91.92;76024.06;4967783;28;102640;-75
2023/10/16 18:29:37;;;;;;;;;9.50;8.50;;;;;-143.90;91.39;76024.06;4964882;28;103117;-74
2023/10/16 18:32:04;;;;;;;;;13.00;10.00;;;;;-143.90;91.79;76019.94;4963759;28;103496;-74
2023/10/16 18:34:30;;;;;;;;;10.50;8.00;;;;;-143.90;91.83;76019.94;4966680;28;101825;-76
2023/10/16 18:36:57;;;;;;;;;12.25;9.00;;;;;-143.90;91.28;76017.88;4965559;28;103174;-75
2023/10/16 18:39:24;;;;;;;;;12.25;9.25;;;;;-143.90;91.09;76019.94;4961277;28;101867;-75
2023/10/16 18:41:51;;;;;;;;;12.75;11.00;;;;;-143.90;90.52;76028.22;4965410;28;103318;-75
2023/10/16 18:44:18;;;;;;;;;19.00;17.75;;;;;-143.90;90.52;76044.75;4960738;28;101629;-75
2023/10/16 18:46:45;;;;;;;;;24.00;20.50;;;;;-143.90;91.09;76040.63;4966913;28;102958;-74
2023/10/16 18:49:12;;;;;;;;;21.75;19.00;;;;;-143.90;90.35;76048.88;4966039;28;101661;-76
2023/10/16 18:51:43;;;;;;;;;24.25;21.00;;;;;-143.90;91.89;76046.81;4964248;28;107934;-76
2023/10/16 18:54:11;;;;;;;;;24.25;21.50;;;;;-143.90;91.05;76046.81;4966686;28;101674;-78
2023/10/16 18:56:38;;;;;;;;;19.00;15.25;;;;;-143.90;90.18;76048.88;4960859;28;102089;-75
2023/10/16 18:59:04;;;;;;;;;17.50;14.75;;;;;-143.90;90.20;76048.88;4965552;28;101904;-74
2023/10/16 19:01:33;;;;;;;;;23.25;15.75;;;;;-143.90;89.91;76040.63;4958557;28;103511;-77
2023/10/16 19:04:00;;;;;;;;;14.00;12.00;;;;;-143.90;90.23;76040.63;4948051;28;101723;-75
2023/10/16 19:06:27;;;;;;;;;15.50;14.25;;;;;-143.90;88.88;76042.69;4945762;28;101678;-75
2023/10/16 19:08:54;;;;;;;;;20.00;15.00;;;;;-143.90;89.33;76044.75;4964816;28;101879;-75
2023/10/16 19:11:22;;;;;;;;;17.00;13.00;;;;;-143.90;89.61;76042.69;4944884;28;103592;-75
2023/10/16 19:13:48;;;;;;;;;2.75;1.00;;;;;-143.90;89.15;76044.75;4948249;28;101696;-75
2023/10/16 19:16:15;;;;;;;;;14.25;11.75;;;;;-143.90;89.44;76044.75;4956335;28;101893;-75
2023/10/16 19:18:42;;;;;;;;;16.75;14.25;;;;;-143.90;88.77;76057.16;4949674;28;103489;-74
2023/10/16 19:21:09;;;;;;;;;12.50;9.25;;;;;-143.90;88.91;76048.88;4967337;28;103403;-74
2023/10/16 19:23:36;;;;;;;;;15.75;12.75;;;;;-143.90;89.28;76065.44;4970224;28;101911;-75
2023/10/16 19:26:04;;;;;;;;;19.50;14.25;;;;;-143.90;89.56;76073.72;4951763;28;103251;-76
2023/10/16 19:28:33;;;;;;;;;12.50;11.25;;;;;-143.90;89.47;76073.72;4950380;28;101959;-75
2023/10/16 19:31:04;;;;;;;;;14.00;13.00;;;;;-143.90;89.69;76079.91;4949895;28;103695;-76
2023/10/16 19:33:35;;;;;;;;;15.50;14.50;;;;;-143.90;88.99;76079.91;4965302;28;102103;-77
2023/10/16 19:36:09;;;;;;;;;13.75;12.75;;;;;-143.90;89.54;76079.91;4965832;28;102147;-76
2023/10/16 19:38:36;;;;;;;;;14.50;10.50;;;;;-143.90;89.52;76069.56;4970900;28;102345;-75
2023/10/16 19:41:04;;;;;;;;;11.75;10.25;;;;;-143.90;89.02;76069.56;4953669;28;102938;-76
2023/10/16 19:43:31;;;;;;;;;10.50;9.75;;;;;-143.90;89.29;76071.63;4961403;28;101741;-76
2023/10/16 19:45:59;;;;;;;;;14.25;14.25;;;;;-143.90;89.17;76090.25;4941659;28;103339;-75
2023/10/16 19:48:26;;;;;;;;;17.75;15.75;;;;;-143.90;88.62;76096.44;4942650;28;101711;-75
2023/10/16 19:50:53;;;;;;;;;22.00;18.50;;;;;-143.90;89.61;76090.25;4961619;28;102211;-75
2023/10/16 19:53:20;;;;;;;;;18.50;13.00;;;;;-143.90;89.26;76073.72;4966152;28;101815;-75
2023/10/16 19:55:47;;;;;;;;;17.25;12.00;;;;;-143.90;89.37;76077.84;4963386;28;101938;-75
2023/10/16 19:58:14;;;;;;;;;25.75;22.75;;;;;-143.90;89.51;76079.91;4963391;28;102054;-76
2023/10/16 20:00:40;;;;;;;;;24.50;21.75;;;;;-143.90;89.75;76090.25;4950811;28;104019;-75
2023/10/16 20:03:08;;;;;;;;;16.25;13.50;;;;;-143.90;89.97;76081.97;4964373;28;101894;-75
2023/10/16 20:05:36;;;;;;;;;19.25;14.75;;;;;-143.90;89.70;76075.78;4959059;28;102036;-76
2023/10/16 20:08:04;;;;;;;;;14.50;10.75;;;;;-143.90;88.94;76069.56;4965180;28;104223;-76
2023/10/16 20:10:34;;;;;;;;;11.75;8.00;;;;;-143.90;88.70;76071.63;4940409;28;103083;-75
2023/10/16 20:13:04;;;;;;;;;8.00;8.00;;;;;-143.90;89.09;76073.72;4960008;28;102775;-75
2023/10/16 20:15:34;;;;;;;;;10.25;9.25;;;;;-143.90;88.98;76073.72;4959112;28;102736;-75
2023/10/16 20:18:00;;;;;;;;;10.00;9.00;;;;;-143.90;88.81;76069.56;4967370;28;102056;-77
2023/10/16 20:20:27;;;;;;;;;9.00;8.50;;;;;-143.90;88.88;76071.63;4949461;28;103729;-76
2023/10/16 20:23:01;;;;;;;;;7.25;7.25;;;;;-143.90;88.81;76067.50;4956205;28;101854;-76
2023/10/16 20:25:33;;;;;;;;;5.75;5.75;;;;;-143.90;88.90;76059.22;4965089;28;102501;-74
2023/10/16 20:28:04;;;;;;;;;9.00;7.00;;;;;-143.90;88.27;76065.44;4940335;28;101934;-74
2023/10/16 20:30:31;;;;;;;;;7.50;6.50;;;;;-143.90;88.95;76061.31;4962536;28;103867;-75
2023/10/16 20:32:59;;;;;;;;;6.00;6.00;;;;;-143.90;87.91;76069.56;4961132;28;101871;-76
2023/10/16 20:35:25;;;;;;;;;8.50;7.00;;;;;-143.90;88.00;76069.56;4956227;28;101658;-75
2023/10/16 20:37:52;;;;;;;;;6.50;6.50;;;;;-143.90;87.98;76069.56;4948810;28;101995;-74
2023/10/16 20:40:21;;;;;;;;;8.00;6.25;;;;;-143.90;87.44;76069.56;4963877;28;103658;-75
2023/10/16 20:42:51;;;;;;;;;8.50;8.25;;;;;-143.90;86.92;76073.72;4961589;28;101834;-75
2023/10/16 20:45:18;;;;;;;;;6.25;4.50;;;;;-143.90;87.84;76071.63;4949786;28;103199;-75
2023/10/16 20:47:48;;;;;;;;;3.25;3.00;;;;;-143.90;87.72;76069.56;4973484;28;102246;-75
2023/10/16 20:50:26;;;;;;;;;6.25;6.25;;;;;-143.90;86.76;76071.63;4964060;28;103490;-75
2023/10/16 20:52:53;;;;;;;;;4.50;4.00;;;;;-143.90;87.22;76069.56;4956014;28;103349;-75
2023/10/16 20:55:23;;;;;;;;;6.00;4.00;;;;;-143.90;86.66;76069.56;4967555;28;102885;-75
2023/10/16 20:57:51;;;;;;;;;7.50;6.50;;;;;-143.90;87.16;76071.63;4956036;28;101720;-75
2023/10/16 21:00:25;;;;;;;;;4.00;4.00;;;;;-143.90;87.10;76067.50;4964603;28;103601;-76
2023/10/16 21:02:54;;;;;;;;;4.00;3.00;;;;;-143.90;86.79;76073.72;4968131;28;102235;-76
2023/10/16 21:05:25;;;;;;;;;3.00;3.00;;;;;-143.90;87.36;76071.63;4968311;28;102081;-74
2023/10/16 21:07:53;;;;;;;;;7.00;6.00;;;;;-143.90;87.74;76069.56;4954760;28;101613;-75
2023/10/16 21:10:21;;;;;;;;;3.50;3.00;;;;;-143.90;87.97;76071.63;4972250;28;103361;-75
2023/10/16 21:12:48;;;;;;;;;1.25;1.25;;;;;-143.90;89.14;76069.56;4968350;28;101902;-74
2023/10/16 21:15:17;;;;;;;;;7.50;6.00;;;;;-143.90;89.31;76073.72;4975349;28;101741;-74
2023/10/16 21:17:46;;;;;;;;;6.00;6.00;;;;;-143.90;89.54;76086.13;4977606;28;101458;-75
2023/10/16 21:20:15;;;;;;;;;4.25;4.00;;;;;-143.90;90.24;76094.38;4964328;28;103317;-75
2023/10/16 21:22:45;;;;;;;;;2.75;2.75;;;;;-143.90;90.09;76094.38;4970790;28;102447;-75
2023/10/16 21:25:13;;;;;;;;;7.00;3.00;;;;;-143.90;90.07;76094.38;4971574;28;101782;-73
2023/10/16 21:27:40;;;;;;;;;4.00;2.25;;;;;-143.90;90.26;76094.38;4963003;28;101905;-75
2023/10/16 21:30:07;;;;;;;;;4.00;4.00;;;;;-143.90;92.31;76106.78;4967916;28;103807;-75
2023/10/16 21:32:37;;;;;;;;;7.25;7.00;;;;;-143.90;92.97;76119.19;4978033;28;101848;-75
2023/10/16 21:35:08;;;;;;;;;11.00;6.50;;;;;-143.90;93.43;76127.47;4972058;28;101914;-76
2023/10/16 21:37:38;;;;;;;;;9.50;8.00;;;;;-143.90;93.60;76133.69;4980996;28;101832;-75
2023/10/16 21:40:06;;;;;;;;;8.00;7.25;;;;;-143.90;94.30;76131.59;4965992;28;102776;-74
2023/10/16 21:42:33;;;;;;;;;7.00;6.00;;;;;-143.90;94.12;76137.81;4971962;28;102208;-75
2023/10/16 21:45:00;;;;;;;;;1.25;1.00;;;;;-143.90;94.89;76131.59;4950129;28;102106;-75
2023/10/16 21:47:27;;;;;;;;;6.50;5.50;;;;;-143.90;94.67;76129.53;4967833;28;102286;-75
2023/10/16 21:49:54;;;;;;;;;5.00;4.00;;;;;-143.90;95.00;76129.53;4972427;28;103334;-74
2023/10/16 21:52:21;;;;;;;;;3.50;2.00;;;;;-143.90;95.50;76133.69;4975679;28;101816;-75
2023/10/16 21:54:47;;;;;;;;;3.00;3.00;;;;;-143.90;96.07;76135.75;4976830;28;101472;-74
2023/10/16 21:57:17;;;;;;;;;3.75;3.00;;;;;-143.90;95.98;76146.09;4976879;28;101776;-75
2023/10/16 21:59:44;;;;;;;;;6.50;3.50;;;;;-143.90;95.70;76139.88;4978634;28;108438;-76
2023/10/16 22:02:15;;;;;;;;;1.25;1.25;;;;;-143.90;95.86;76139.88;4968289;28;101646;-74
2023/10/16 22:04:46;;;;;;;;;3.00;3.00;;;;;-143.90;95.83;76146.09;4954434;28;101911;-74
2023/10/16 22:07:14;;;;;;;;;4.50;3.50;;;;;-143.90;96.01;76150.22;4974573;28;101903;-75
2023/10/16 22:09:40;;;;;;;;;2.50;2.00;;;;;-143.90;97.81;76154.34;4955570;28;104809;-75
2023/10/16 22:12:10;;;;;;;;;4.00;2.50;;;;;-143.90;98.38;76156.41;4973616;28;101758;-77
2023/10/16 22:14:42;;;;;;;;;4.00;3.00;;;;;-143.90;99.29;76160.56;4952497;28;101820;-75
2023/10/16 22:17:11;;;;;;;;;3.00;3.00;;;;;-143.90;98.55;76172.97;4971403;28;101702;-76
2023/10/16 22:19:38;;;;;;;;;4.00;4.00;;;;;-143.90;99.16;76172.97;4970999;28;103069;-75
2023/10/16 22:22:07;;;;;;;;;5.75;4.50;;;;;-143.90;99.02;76164.69;4974834;28;101837;-76
2023/10/16 22:24:40;;;;;;;;;6.00;4.00;;;;;-143.90;98.05;76160.56;4966038;28;102761;-75
2023/10/16 22:27:07;;;;;;;;;6.50;5.00;;;;;-143.90;98.34;76172.97;4977259;28;101874;-75
2023/10/16 22:29:35;;;;;;;;;6.75;4.50;;;;;-143.90;98.58;76172.97;4972536;28;103454;-76
2023/10/16 22:32:01;;;;;;;;;5.75;5.50;;;;;-143.90;98.77;76164.69;4973534;28;102297;-75
2023/10/16 22:34:28;;;;;;;;;14.75;12.00;;;;;-143.90;99.58;76177.09;4967580;28;101808;-75
2023/10/16 22:36:55;;;;;;;;;8.00;7.00;;;;;-143.90;99.32;76177.09;4965093;28;101937;-75
2023/10/16 22:39:24;;;;;;;;;6.25;4.00;;;;;-143.90;98.51;76181.25;4971066;28;103533;-77
2023/10/16 22:41:53;;;;;;;;;15.50;14.25;;;;;-143.90;99.86;76191.56;4971220;28;102007;-75
2023/10/16 22:44:22;;;;;;;;;12.25;9.00;;;;;-143.90;100.00;76195.72;4976838;28;101887;-75
2023/10/16 22:46:50;;;;;;;;;13.75;11.00;;;;;-143.90;100.00;76197.78;4973984;28;101867;-76
2023/10/16 22:49:17;;;;;;;;;11.50;10.75;;;;;-143.90;100.00;76203.97;4977629;28;103501;-73
2023/10/16 22:51:47;;;;;;;;;10.00;8.75;;;;;-143.90;100.00;76201.91;4974040;28;101780;-74
2023/10/16 22:54:15;;;;;;;;;10.75;8.75;;;;;-143.90;100.00;76197.78;4951662;28;102145;-75
2023/10/16 22:56:42;;;;;;;;;9.00;9.00;;;;;-143.90;100.00;76208.13;4975440;28;101884;-75
2023/10/16 22:59:09;;;;;;;;;12.00;11.00;;;;;-143.90;100.00;76206.06;4947419;28;102387;-76
2023/10/16 23:01:39;;;;;;;;;13.50;7.50;;;;;-143.90;99.38;76201.91;4977451;28;101765;-74
2023/10/16 23:04:06;;;;;;;;;6.00;5.00;;;;;-143.90;99.63;76218.47;4974009;28;102026;-76
2023/10/16 23:06:34;;;;;;;;;7.75;6.50;;;;;-143.90;99.89;76214.31;4971317;28;101871;-76
2023/10/16 23:09:00;;;;;;;;;12.50;11.00;;;;;-143.90;99.37;76222.59;4972984;28;103600;-75
2023/10/16 23:11:28;;;;;;;;;5.50;2.00;;;;;-143.90;99.56;76228.81;4976653;28;102076;-75
2023/10/16 23:13:55;;;;;;;;;8.75;7.25;;;;;-143.90;100.00;76232.94;4950313;28;101807;-75
2023/10/16 23:16:27;;;;;;;;;6.00;4.00;;;;;-143.90;100.00;76245.34;4975077;28;101798;-75
2023/10/16 23:18:55;;;;;;;;;7.75;7.00;;;;;-143.90;100.00;76257.75;4953344;28;103459;-74
2023/10/16 23:21:24;;;;;;;;;6.50;6.50;;;;;-143.90;100.00;76257.75;4975523;28;102066;-75
2023/10/16 23:23:52;;;;;;;;;6.00;3.50;;;;;-143.90;100.00;76272.22;4976430;28;101769;-75
2023/10/16 23:26:19;;;;;;;;;9.50;8.00;;;;;-143.90;100.00;76278.44;4957887;28;102030;-75
2023/10/16 23:28:49;;;;;;;;;6.25;6.00;;;;;-143.90;100.00;76280.50;4982108;28;103590;-75
2023/10/16 23:31:16;;;;;;;;;12.00;10.00;;;;;-143.90;100.00;76288.78;4953443;28;101494;-74
2023/10/16 23:33:46;;;;;;;;;10.25;8.25;;;;;-143.90;100.00;76288.78;4978834;28;101854;-74
2023/10/16 23:36:13;;;;;;;;;6.50;6.00;;;;;-143.90;100.00;76288.78;4975561;28;101918;-75
2023/10/16 23:38:43;;;;;;;;;11.00;9.00;;;;;-143.90;100.00;76301.19;4975318;28;103342;-75
2023/10/16 23:41:40;;;;;;;;;8.25;7.00;;;;;-143.90;100.00;76301.19;4969812;28;102084;-75
2023/10/16 23:44:21;;;;;;;;;10.75;7.00;;;;;-143.90;100.00;76305.31;4968147;28;101821;-75
2023/10/16 23:46:55;;;;;;;;;9.75;8.00;;;;;-143.90;100.00;76301.19;4972739;28;102017;-73
2023/10/16 23:49:23;;;;;;;;;8.00;7.50;;;;;-143.90;100.00;76305.31;4966923;28;107225;-75
2023/10/16 23:51:55;;;;;;;;;7.25;7.00;;;;;-143.90;100.00;76309.44;4977819;28;103005;-76
2023/10/16 23:54:39;;;;;;;;;11.50;8.75;;;;;-143.90;100.00;76323.94;4968521;28;102245;-74
2023/10/16 23:59:34;;;;;;;;;16.00;13.00;;;;;-143.90;100.00;76334.25;4970072;28;103394;-74
